createdAt,value
2022-09-22T00:01:25.940Z,99322.16
2022-09-22T00:03:56.487Z,99318.25
2022-09-22T00:06:36.942Z,99321.19
2022-09-22T00:09:07.774Z,99321.38
2022-09-22T00:11:40.179Z,99322.19
2022-09-22T00:14:15.590Z,99317.44
2022-09-22T00:16:52.487Z,99316.97
2022-09-22T00:19:26.667Z,99320.38
2022-09-22T00:21:53.821Z,99320.88
2022-09-22T00:24:22.899Z,99325.00
2022-09-22T00:26:51.226Z,99321.63
2022-09-22T00:29:18.040Z,99319.94
2022-09-22T00:31:45.754Z,99313.44
2022-09-22T00:34:19.898Z,99311.69
2022-09-22T00:36:46.637Z,99318.59
2022-09-22T00:39:15.358Z,99315.75
2022-09-22T00:41:48.717Z,99310.97
2022-09-22T00:44:21.197Z,99321.06
2022-09-22T00:46:58.775Z,99315.03
2022-09-22T00:49:52.116Z,99317.59
2022-09-22T00:52:32.034Z,99314.53
2022-09-22T00:55:05.204Z,99313.88
2022-09-22T00:57:37.027Z,99312.38
2022-09-22T01:00:08.288Z,99309.81
2022-09-22T01:02:35.246Z,99313.94
2022-09-22T01:05:01.731Z,99311.75
2022-09-22T01:07:30.999Z,99302.72
2022-09-22T01:09:59.749Z,99300.84
2022-09-22T01:12:30.820Z,99300.91
2022-09-22T01:15:40.771Z,99294.25
2022-09-22T01:18:24.824Z,99297.72
2022-09-22T01:21:24.655Z,99297.50
2022-09-22T01:24:32.155Z,99301.91
2022-09-22T01:27:46.722Z,99293.56
2022-09-22T01:30:19.689Z,99295.94
2022-09-22T01:32:59.097Z,99295.94
2022-09-22T01:35:52.697Z,99291.22
2022-09-22T01:38:54.131Z,99293.81
2022-09-22T01:41:39.656Z,99289.69
2022-09-22T01:44:49.092Z,99288.94
2022-09-22T01:47:35.695Z,99294.25
2022-09-22T01:50:13.880Z,99291.97
2022-09-22T01:52:45.145Z,99285.63
2022-09-22T01:55:22.865Z,99284.81
2022-09-22T01:58:00.961Z,99282.41
2022-09-22T02:00:27.764Z,99290.50
2022-09-22T02:03:05.096Z,99285.31
2022-09-22T02:06:23.291Z,99270.44
2022-09-22T02:09:12.033Z,99276.84
2022-09-22T02:11:38.803Z,99276.63
2022-09-22T02:14:06.975Z,99278.16
2022-09-22T02:16:34.846Z,99272.03
2022-09-22T02:19:21.546Z,99269.19
2022-09-22T02:21:48.942Z,99266.97
2022-09-22T02:24:37.868Z,99264.97
2022-09-22T02:27:36.416Z,99271.59
2022-09-22T02:30:11.914Z,99268.94
2022-09-22T02:32:48.573Z,99267.63
2022-09-22T02:35:15.958Z,99273.84
2022-09-22T02:37:55.290Z,99267.91
2022-09-22T02:40:44.494Z,99266.88
2022-09-22T02:43:27.344Z,99258.00
2022-09-22T02:46:06.445Z,99249.34
2022-09-22T02:48:41.390Z,99247.66
2022-09-22T02:51:09.496Z,99248.00
2022-09-22T02:53:36.534Z,99243.81
2022-09-22T02:56:04.529Z,99239.25
2022-09-22T02:58:31.236Z,99247.13
2022-09-22T03:00:58.058Z,99240.00
2022-09-22T03:03:33.343Z,99245.81
2022-09-22T03:05:59.806Z,99234.16
2022-09-22T03:08:26.267Z,99226.44
2022-09-22T03:10:52.692Z,99228.31
2022-09-22T03:13:19.208Z,99228.22
2022-09-22T03:15:46.928Z,99230.41
2022-09-22T03:18:13.971Z,99225.34
2022-09-22T03:20:40.920Z,99231.44
2022-09-22T03:23:07.588Z,99228.56
2022-09-22T03:25:34.155Z,99222.56
2022-09-22T03:28:00.993Z,99223.25
2022-09-22T03:30:27.550Z,99227.53
2022-09-22T03:32:54.062Z,99221.63
2022-09-22T03:35:20.561Z,99217.41
2022-09-22T03:37:47.075Z,99220.06
2022-09-22T03:40:13.966Z,99220.06
2022-09-22T03:42:40.477Z,99216.50
2022-09-22T03:45:07.627Z,99218.13
2022-09-22T03:47:34.060Z,99223.50
2022-09-22T03:50:02.783Z,99214.50
2022-09-22T03:52:29.226Z,99213.34
2022-09-22T03:54:55.681Z,99218.75
2022-09-22T03:57:22.378Z,99218.38
2022-09-22T03:59:48.977Z,99217.44
2022-09-22T04:02:15.515Z,99212.06
2022-09-22T04:04:42.391Z,99211.03
2022-09-22T04:07:08.850Z,99214.47
2022-09-22T04:09:35.615Z,99209.28
2022-09-22T04:12:02.740Z,99205.91
2022-09-22T04:14:29.375Z,99207.41
2022-09-22T04:16:56.598Z,99203.97
2022-09-22T04:19:26.127Z,99201.47
2022-09-22T04:21:56.977Z,99202.47
2022-09-22T04:24:24.407Z,99204.91
2022-09-22T04:27:15.263Z,99204.41
2022-09-22T04:29:37.673Z,99206.50
2022-09-22T04:32:04.331Z,99206.25
2022-09-22T04:34:30.790Z,99212.31
2022-09-22T04:36:57.224Z,99211.63
2022-09-22T04:39:24.123Z,99218.63
2022-09-22T04:41:50.917Z,99207.97
2022-09-22T04:44:17.361Z,99216.78
2022-09-22T04:46:45.989Z,99217.69
2022-09-22T04:49:15.519Z,99210.66
2022-09-22T04:51:42.087Z,99212.31
2022-09-22T04:54:08.513Z,99214.09
2022-09-22T04:56:34.976Z,99209.03
2022-09-22T04:59:02.122Z,99210.63
2022-09-22T05:01:28.692Z,99210.38
2022-09-22T05:03:55.168Z,99209.47
2022-09-22T05:06:21.626Z,99213.09
2022-09-22T05:08:48.050Z,99215.78
2022-09-22T05:11:14.482Z,99213.28
2022-09-22T05:13:41.087Z,99214.91
2022-09-22T05:16:08.771Z,99209.69
2022-09-22T05:18:35.696Z,99213.28
2022-09-22T05:21:02.554Z,99214.63
2022-09-22T05:23:29.198Z,99213.72
2022-09-22T05:25:59.362Z,99210.72
2022-09-22T05:28:25.818Z,99214.78
2022-09-22T05:30:52.892Z,99221.81
2022-09-22T05:33:19.316Z,99217.94
2022-09-22T05:35:45.997Z,99217.13
2022-09-22T05:38:12.505Z,99222.41
2022-09-22T05:40:39.069Z,99210.94
2022-09-22T05:43:05.596Z,99217.69
2022-09-22T05:45:32.109Z,99218.50
2022-09-22T05:47:58.583Z,99220.22
2022-09-22T05:50:25.087Z,99216.50
2022-09-22T05:52:51.767Z,99216.00
2022-09-22T05:55:18.561Z,99210.16
2022-09-22T05:57:45.069Z,99208.69
2022-09-22T06:00:12.429Z,99217.03
2022-09-22T06:02:39.566Z,99221.56
2022-09-22T06:05:06.777Z,99209.41
2022-09-22T06:07:33.545Z,99218.13
2022-09-22T06:10:00.021Z,99221.56
2022-09-22T06:12:29.466Z,99221.47
2022-09-22T06:14:56.588Z,99219.22
2022-09-22T06:17:26.180Z,99224.63
2022-09-22T06:19:52.660Z,99226.63
2022-09-22T06:22:19.128Z,99223.28
2022-09-22T06:24:45.638Z,99220.28
2022-09-22T06:27:12.320Z,99222.50
2022-09-22T06:29:38.827Z,99212.66
2022-09-22T06:32:08.478Z,99220.88
2022-09-22T06:34:36.888Z,99220.38
2022-09-22T06:37:07.817Z,99223.34
2022-09-22T06:39:37.358Z,99213.56
2022-09-22T06:42:05.325Z,99215.69
2022-09-22T06:44:32.185Z,99211.31
2022-09-22T06:46:58.971Z,99213.06
2022-09-22T06:49:26.163Z,99209.84
2022-09-22T06:51:52.692Z,99217.94
2022-09-22T06:54:21.397Z,99210.31
2022-09-22T06:56:49.463Z,99207.69
2022-09-22T06:59:16.688Z,99213.56
2022-09-22T07:01:45.292Z,99206.53
2022-09-22T07:04:13.385Z,99211.66
2022-09-22T07:06:40.515Z,99205.47
2022-09-22T07:09:09.208Z,99208.59
2022-09-22T07:11:39.777Z,99211.03
2022-09-22T07:14:07.488Z,99209.16
2022-09-22T07:16:35.175Z,99212.28
2022-09-22T07:19:01.660Z,99209.28
2022-09-22T07:21:34.884Z,99204.69
2022-09-22T07:24:01.890Z,99205.19
2022-09-22T07:26:32.794Z,99203.91
2022-09-22T07:29:03.311Z,99206.66
2022-09-22T07:31:32.006Z,99201.78
2022-09-22T07:34:01.558Z,99198.56
2022-09-22T07:36:31.565Z,99201.47
2022-09-22T07:39:07.705Z,99199.97
2022-09-22T07:41:44.392Z,99203.44
2022-09-22T07:44:31.231Z,99207.25
2022-09-22T07:46:58.408Z,99196.91
2022-09-22T07:49:24.926Z,99202.69
2022-09-22T07:51:54.770Z,99198.38
2022-09-22T07:54:22.624Z,99196.00
2022-09-22T07:56:58.017Z,99199.16
2022-09-22T07:59:25.629Z,99200.72
2022-09-22T08:01:52.787Z,99193.19
2022-09-22T08:04:22.764Z,99193.09
2022-09-22T08:06:55.133Z,99192.69
2022-09-22T08:09:22.823Z,99201.00
2022-09-22T08:11:50.025Z,99203.25
2022-09-22T08:14:18.126Z,99198.38
2022-09-22T08:16:45.910Z,99196.03
2022-09-22T08:19:13.479Z,99193.19
2022-09-22T08:21:48.938Z,99188.31
2022-09-22T08:24:22.327Z,99189.38
2022-09-22T08:26:52.370Z,99182.72
2022-09-22T08:29:19.317Z,99174.34
2022-09-22T08:31:47.296Z,99186.78
2022-09-22T08:34:16.532Z,99184.47
2022-09-22T08:36:48.281Z,99181.31
2022-09-22T08:39:17.704Z,99182.41
2022-09-22T08:42:10.140Z,99191.03
2022-09-22T08:45:01.750Z,99188.94
2022-09-22T08:47:59.956Z,99186.16
2022-09-22T08:50:55.661Z,99180.97
2022-09-22T08:53:23.263Z,99179.22
2022-09-22T08:56:06.918Z,99182.03
2022-09-22T08:58:56.394Z,99182.22
2022-09-22T09:01:57.258Z,99181.44
2022-09-22T09:04:51.263Z,99181.78
2022-09-22T09:08:04.139Z,99182.97
2022-09-22T09:11:14.612Z,99189.31
2022-09-22T09:14:08.920Z,99188.47
2022-09-22T09:17:03.614Z,99191.72
2022-09-22T09:19:45.966Z,99185.63
2022-09-22T09:22:27.041Z,99182.81
2022-09-22T09:25:25.014Z,99186.41
2022-09-22T09:27:59.890Z,99184.38
2022-09-22T09:30:26.785Z,99179.53
2022-09-22T09:33:14.254Z,99178.63
2022-09-22T09:35:51.918Z,99180.69
2022-09-22T09:38:38.315Z,99185.03
2022-09-22T09:41:22.210Z,99179.28
2022-09-22T09:43:53.233Z,99176.56
2022-09-22T09:47:19.365Z,99169.41
2022-09-22T09:49:52.788Z,99168.47
2022-09-22T09:52:21.069Z,99172.03
2022-09-22T09:54:48.524Z,99165.41
2022-09-22T09:57:20.710Z,99167.03
2022-09-22T10:00:27.575Z,99165.78
2022-09-22T10:03:29.927Z,99155.88
2022-09-22T10:06:06.313Z,99152.91
2022-09-22T10:08:45.481Z,99148.97
2022-09-22T10:11:15.045Z,99141.25
2022-09-22T10:13:43.825Z,99136.88
2022-09-22T10:16:51.660Z,99133.59
2022-09-22T10:19:30.701Z,99130.03
2022-09-22T10:22:27.430Z,99131.94
2022-09-22T10:25:03.129Z,99123.66
2022-09-22T10:27:31.786Z,99131.91
2022-09-22T10:30:21.295Z,99133.19
2022-09-22T10:33:20.299Z,99128.63
2022-09-22T10:36:12.419Z,99130.31
2022-09-22T10:38:43.083Z,99123.19
2022-09-22T10:41:17.761Z,99124.16
2022-09-22T10:43:52.187Z,99114.06
2022-09-22T10:46:55.477Z,99113.63
2022-09-22T10:49:40.086Z,99116.56
2022-09-22T10:52:30.675Z,99113.03
2022-09-22T10:55:30.599Z,99108.63
2022-09-22T10:58:08.780Z,99109.53
2022-09-22T11:00:39.482Z,99108.38
2022-09-22T11:03:48.676Z,99104.81
2022-09-22T11:07:12.850Z,99103.44
2022-09-22T11:10:20.455Z,99094.06
2022-09-22T11:14:03.226Z,99091.56
2022-09-22T11:16:48.358Z,99087.25
2022-09-22T11:19:35.782Z,99084.47
2022-09-22T11:22:30.378Z,99088.69
2022-09-22T11:25:50.793Z,99095.19
2022-09-22T11:28:57.455Z,99086.28
2022-09-22T11:31:45.534Z,99080.22
2022-09-22T11:34:39.512Z,99069.72
2022-09-22T11:38:02.417Z,99077.94
2022-09-22T11:41:16.061Z,99073.84
2022-09-22T11:44:11.940Z,99076.63
2022-09-22T11:47:31.310Z,99063.97
2022-09-22T11:50:16.551Z,99068.31
2022-09-22T11:53:24.327Z,99072.13
2022-09-22T11:56:34.574Z,99061.50
2022-09-22T11:59:28.422Z,99051.31
2022-09-22T12:02:04.549Z,99061.38
2022-09-22T12:04:46.515Z,99053.00
2022-09-22T12:07:44.747Z,99048.34
2022-09-22T12:10:30.115Z,99041.72
2022-09-22T12:12:57.047Z,99039.25
2022-09-22T12:15:38.215Z,99025.44
2022-09-22T12:18:20.074Z,99031.00
2022-09-22T12:21:01.917Z,99033.22
2022-09-22T12:23:47.583Z,99029.97
2022-09-22T12:26:31.501Z,99025.13
2022-09-22T12:29:01.891Z,99020.50
2022-09-22T12:31:38.002Z,99012.78
2022-09-22T12:34:18.314Z,99010.19
2022-09-22T12:36:46.345Z,99012.78
2022-09-22T12:39:23.829Z,99002.81
2022-09-22T12:41:59.198Z,99005.47
2022-09-22T12:44:31.897Z,99004.75
2022-09-22T12:47:23.365Z,99008.81
2022-09-22T12:50:04.249Z,99009.44
2022-09-22T12:53:02.302Z,99006.47
2022-09-22T12:55:28.674Z,99002.78
2022-09-22T12:58:01.048Z,98992.38
2022-09-22T13:00:41.065Z,99001.06
2022-09-22T13:03:25.965Z,98990.78
2022-09-22T13:06:22.596Z,98994.03
2022-09-22T13:08:54.788Z,98984.34
2022-09-22T13:12:11.932Z,98984.00
2022-09-22T13:15:14.970Z,98981.41
2022-09-22T13:17:45.688Z,98966.19
2022-09-22T13:20:45.951Z,98955.34
2022-09-22T13:23:13.946Z,98970.16
2022-09-22T13:25:44.181Z,98968.66
2022-09-22T13:28:16.843Z,98965.66
2022-09-22T13:30:46.461Z,98965.66
2022-09-22T13:33:24.462Z,98965.81
2022-09-22T13:35:57.783Z,98967.75
2022-09-22T13:38:24.787Z,98958.94
2022-09-22T13:40:52.618Z,98951.53
2022-09-22T13:43:33.542Z,98940.88
2022-09-22T13:46:03.551Z,98942.00
2022-09-22T13:48:37.503Z,98945.69
2022-09-22T13:51:11.601Z,98937.00
2022-09-22T13:53:49.250Z,98941.22
2022-09-22T13:56:22.010Z,98942.53
2022-09-22T13:58:51.619Z,98937.94
2022-09-22T14:01:27.455Z,98938.19
2022-09-22T14:03:55.555Z,98941.22
2022-09-22T14:06:28.716Z,98936.84
2022-09-22T14:08:56.990Z,98939.88
2022-09-22T14:11:28.057Z,98938.53
2022-09-22T14:13:54.811Z,98929.56
2022-09-22T14:16:50.902Z,98928.97
2022-09-22T14:19:33.900Z,98924.81
2022-09-22T14:22:13.580Z,98922.84
2022-09-22T14:24:48.573Z,98924.56
2022-09-22T14:27:27.697Z,98916.19
2022-09-22T14:29:56.079Z,98917.06
2022-09-22T14:32:39.618Z,98914.66
2022-09-22T14:35:16.566Z,98917.59
2022-09-22T14:37:49.362Z,98912.66
2022-09-22T14:40:22.402Z,98918.69
2022-09-22T14:43:08.731Z,98913.50
2022-09-22T14:45:57.773Z,98909.16
2022-09-22T14:48:38.855Z,98910.19
2022-09-22T14:51:25.351Z,98899.97
2022-09-22T14:53:58.595Z,98905.03
2022-09-22T14:56:29.335Z,98895.22
2022-09-22T14:59:02.548Z,98897.16
2022-09-22T15:01:50.918Z,98894.63
2022-09-22T15:04:41.675Z,98894.06
2022-09-22T15:07:25.776Z,98890.16
2022-09-22T15:10:00.379Z,98895.06
2022-09-22T15:12:47.347Z,98888.19
2022-09-22T15:15:29.000Z,98889.69
2022-09-22T15:18:19.029Z,98896.59
2022-09-22T15:20:47.097Z,98889.31
2022-09-22T15:23:18.162Z,98880.38
2022-09-22T15:25:46.403Z,98887.09
2022-09-22T15:28:18.559Z,98876.69
2022-09-22T15:30:47.744Z,98882.28
2022-09-22T15:33:15.962Z,98886.25
2022-09-22T15:35:46.338Z,98877.13
2022-09-22T15:38:27.371Z,98879.63
2022-09-22T15:40:54.352Z,98876.94
2022-09-22T15:43:23.296Z,98881.44
2022-09-22T15:45:56.591Z,98874.56
2022-09-22T15:48:30.341Z,98872.16
2022-09-22T15:51:00.685Z,98875.81
2022-09-22T15:53:27.323Z,98876.47
2022-09-22T15:55:54.574Z,98875.19
2022-09-22T15:58:23.155Z,98869.97
2022-09-22T16:00:55.364Z,98867.28
2022-09-22T16:03:23.957Z,98869.78
2022-09-22T16:06:02.051Z,98871.44
2022-09-22T16:08:35.587Z,98869.44
2022-09-22T16:11:05.448Z,98870.25
2022-09-22T16:13:33.282Z,98868.88
2022-09-22T16:16:03.251Z,98870.16
2022-09-22T16:18:36.157Z,98872.34
2022-09-22T16:21:14.407Z,98869.22
2022-09-22T16:23:40.835Z,98870.72
2022-09-22T16:26:07.279Z,98871.94
2022-09-22T16:28:33.723Z,98871.72
2022-09-22T16:31:04.307Z,98867.63
2022-09-22T16:33:31.545Z,98867.38
2022-09-22T16:35:58.388Z,98867.50
2022-09-22T16:38:24.950Z,98864.78
2022-09-22T16:41:07.823Z,98859.59
2022-09-22T16:43:34.301Z,98855.75
2022-09-22T16:46:19.661Z,98868.47
2022-09-22T16:48:46.296Z,98861.84
2022-09-22T16:51:15.571Z,98860.03
2022-09-22T16:53:42.488Z,98860.91
2022-09-22T16:56:08.922Z,98855.63
2022-09-22T16:58:35.367Z,98865.94
2022-09-22T17:01:04.563Z,98869.81
2022-09-22T17:03:34.047Z,98870.63
2022-09-22T17:06:06.519Z,98876.28
2022-09-22T17:08:34.057Z,98871.56
2022-09-22T17:11:00.730Z,98867.34
2022-09-22T17:13:31.214Z,98868.63
2022-09-22T17:16:20.828Z,98859.66
2022-09-22T17:18:50.146Z,98867.50
2022-09-22T17:21:21.076Z,98867.91
2022-09-22T17:23:50.338Z,98864.00
2022-09-22T17:26:18.923Z,98863.06
2022-09-22T17:28:46.499Z,98871.44
2022-09-22T17:31:13.702Z,98867.38
2022-09-22T17:33:47.804Z,98869.41
2022-09-22T17:36:20.305Z,98872.06
2022-09-22T17:38:50.669Z,98867.16
2022-09-22T17:41:26.158Z,98862.38
2022-09-22T17:43:58.428Z,98870.41
2022-09-22T17:46:28.796Z,98878.25
2022-09-22T17:49:14.214Z,98878.16
2022-09-22T17:52:10.154Z,98876.38
2022-09-22T17:55:00.131Z,98878.78
2022-09-22T17:57:32.101Z,98883.00
2022-09-22T17:59:59.270Z,98884.25
2022-09-22T18:02:32.133Z,98891.50
2022-09-22T18:04:58.864Z,98891.75
2022-09-22T18:07:27.001Z,98892.47
2022-09-22T18:09:55.845Z,98891.03
2022-09-22T18:12:25.010Z,98892.13
2022-09-22T18:14:55.335Z,98892.34
2022-09-22T18:17:26.516Z,98893.41
2022-09-22T18:19:58.700Z,98893.91
2022-09-22T18:22:28.469Z,98896.00
2022-09-22T18:24:56.095Z,98894.75
2022-09-22T18:27:29.739Z,98892.91
2022-09-22T18:29:59.455Z,98890.56
2022-09-22T18:32:27.747Z,98896.19
2022-09-22T18:34:55.375Z,98895.44
2022-09-22T18:37:25.017Z,98892.25
2022-09-22T18:39:51.618Z,98892.34
2022-09-22T18:42:22.608Z,98898.09
2022-09-22T18:44:49.053Z,98897.59
2022-09-22T18:47:18.902Z,98900.13
2022-09-22T18:49:48.781Z,98891.50
2022-09-22T18:52:22.834Z,98892.50
2022-09-22T18:54:51.670Z,98890.44
2022-09-22T18:57:18.192Z,98892.88
2022-09-22T18:59:44.647Z,98890.78
2022-09-22T19:02:12.274Z,98899.06
2022-09-22T19:04:39.159Z,98893.97
2022-09-22T19:07:24.367Z,98903.00
2022-09-22T19:09:52.371Z,98903.47
2022-09-22T19:12:20.280Z,98901.50
2022-09-22T19:14:48.023Z,98905.47
2022-09-22T19:17:17.123Z,98913.84
2022-09-22T19:19:48.758Z,98909.84
2022-09-22T19:22:16.742Z,98908.09
2022-09-22T19:24:45.951Z,98905.28
2022-09-22T19:27:16.302Z,98905.59
2022-09-22T19:29:42.787Z,98899.84
2022-09-22T19:32:10.109Z,98906.22
2022-09-22T19:34:36.577Z,98914.34
2022-09-22T19:37:03.663Z,98916.81
2022-09-22T19:39:32.014Z,98919.03
2022-09-22T19:41:59.424Z,98908.34
2022-09-22T19:44:27.038Z,98904.94
2022-09-22T19:46:53.487Z,98906.22
2022-09-22T19:49:19.986Z,98905.47
2022-09-22T19:51:46.476Z,98903.19
2022-09-22T19:54:13.007Z,98900.22
2022-09-22T19:56:39.801Z,98904.03
2022-09-22T19:59:09.601Z,98898.03
2022-09-22T20:01:41.035Z,98900.56
2022-09-22T20:04:19.062Z,98892.78
2022-09-22T20:06:48.923Z,98896.66
2022-09-22T20:09:16.826Z,98896.81
2022-09-22T20:11:49.764Z,98888.50
2022-09-22T20:14:22.476Z,98893.75
2022-09-22T20:17:09.382Z,98889.59
2022-09-22T20:19:38.366Z,98890.88
2022-09-22T20:22:27.499Z,98885.97
2022-09-22T20:25:01.283Z,98885.63
2022-09-22T20:27:31.511Z,98888.09
2022-09-22T20:29:59.824Z,98890.13
2022-09-22T20:32:31.404Z,98893.84
2022-09-22T20:34:57.879Z,98877.88
2022-09-22T20:37:24.894Z,98880.34
2022-09-22T20:39:51.947Z,98890.00
2022-09-22T20:42:18.424Z,98882.22
2022-09-22T20:44:45.140Z,98886.38
2022-09-22T20:47:24.314Z,98876.88
2022-09-22T20:49:52.099Z,98880.75
2022-09-22T20:52:20.511Z,98875.75
2022-09-22T20:54:48.714Z,98872.81
2022-09-22T20:57:16.012Z,98878.91
2022-09-22T20:59:46.233Z,98875.91
2022-09-22T21:02:14.773Z,98882.53
2022-09-22T21:04:41.697Z,98881.16
2022-09-22T21:07:11.108Z,98883.84
2022-09-22T21:09:56.196Z,98869.53
2022-09-22T21:12:27.343Z,98879.34
2022-09-22T21:14:57.390Z,98869.53
2022-09-22T21:17:24.204Z,98866.13
2022-09-22T21:19:50.782Z,98874.16
2022-09-22T21:22:17.256Z,98862.91
2022-09-22T21:24:52.510Z,98861.22
2022-09-22T21:27:20.361Z,98865.94
2022-09-22T21:29:46.924Z,98863.22
2022-09-22T21:32:13.435Z,98858.13
2022-09-22T21:34:41.755Z,98858.44
2022-09-22T21:37:11.250Z,98856.59
2022-09-22T21:39:37.750Z,98860.38
2022-09-22T21:42:04.291Z,98857.75
2022-09-22T21:44:30.763Z,98851.97
2022-09-22T21:46:57.238Z,98864.47
2022-09-22T21:49:24.191Z,98853.28
2022-09-22T21:51:50.711Z,98848.03
2022-09-22T21:54:18.870Z,98845.50
2022-09-22T21:56:46.233Z,98848.88
2022-09-22T21:59:13.367Z,98842.91
2022-09-22T22:01:42.229Z,98838.41
2022-09-22T22:04:10.110Z,98840.09
2022-09-22T22:06:45.571Z,98839.72
2022-09-22T22:09:20.307Z,98835.34
2022-09-22T22:11:59.201Z,98831.88
2022-09-22T22:14:32.697Z,98835.03
2022-09-22T22:17:01.999Z,98829.16
2022-09-22T22:19:29.774Z,98830.22
2022-09-22T22:21:56.274Z,98825.00
2022-09-22T22:24:24.675Z,98835.94
2022-09-22T22:27:02.316Z,98829.63
2022-09-22T22:29:34.633Z,98833.28
2022-09-22T22:32:02.570Z,98822.81
2022-09-22T22:34:29.123Z,98818.47
2022-09-22T22:36:58.115Z,98816.53
2022-09-22T22:39:24.700Z,98825.63
2022-09-22T22:41:54.385Z,98829.13
2022-09-22T22:44:21.720Z,98823.13
2022-09-22T22:46:48.388Z,98816.97
2022-09-22T22:49:15.086Z,98818.19
2022-09-22T22:51:45.852Z,98825.28
2022-09-22T22:54:14.259Z,98820.47
2022-09-22T22:56:42.809Z,98807.78
2022-09-22T22:59:11.023Z,98814.00
2022-09-22T23:01:37.728Z,98812.84
2022-09-22T23:04:07.774Z,98806.63
2022-09-22T23:06:43.642Z,98804.72
2022-09-22T23:09:14.746Z,98806.06
2022-09-22T23:11:42.378Z,98804.88
2022-09-22T23:14:12.009Z,98804.97
2022-09-22T23:16:44.821Z,98805.03
2022-09-22T23:19:17.755Z,98798.19
2022-09-22T23:21:45.407Z,98803.94
2022-09-22T23:24:18.900Z,98803.56
2022-09-22T23:26:49.736Z,98793.88
2022-09-22T23:29:16.199Z,98796.22
2022-09-22T23:31:42.680Z,98795.81
2022-09-22T23:34:09.129Z,98796.44
2022-09-22T23:36:35.640Z,98793.59
2022-09-22T23:39:05.273Z,98792.75
2022-09-22T23:41:34.847Z,98791.16
2022-09-22T23:44:02.732Z,98788.59
2022-09-22T23:46:29.297Z,98798.69
2022-09-22T23:48:55.906Z,98792.69
2022-09-22T23:51:22.911Z,98786.75
2022-09-22T23:53:49.407Z,98783.09
2022-09-22T23:56:15.843Z,98789.25
2022-09-22T23:58:42.292Z,98790.84
